Time;durP1;ratioP1;P1;durP2;ratioP2;P2;SDS_P1;SDS_P2;PMS_P1;PMS_P2;Temp;Humidity;BMP_temperature;BMP_pressure;BME280_temperature;BME280_humidity;BME280_pressure;Samples;Min_cycle;Max_cycle;Signal;HPM_P1;HPM_P2
2021/12/09 00:00:21;;;;;;;9.35;5.07;;;;;;;2.25;96.55;99522.56;692073;28;1918;-52
2021/12/09 00:00:51;;;;;;;11.25;4.95;;;;;;;2.25;95.97;99520.00;691684;28;1435;-56
2021/12/09 00:01:13;;;;;;;10.40;5.45;;;;;;;2.25;96.58;99520.00;690398;28;4442;-51
2021/12/09 00:01:39;;;;;;;10.43;5.50;;;;;;;2.25;96.99;99512.25;692114;28;1106;-53
2021/12/09 00:01:59;;;;;;;9.75;5.10;;;;;;;2.26;97.75;99524.31;691929;28;3356;-52
2021/12/09 00:02:21;;;;;;;9.80;5.33;;;;;;;2.26;97.23;99521.75;691541;28;1197;-58
2021/12/09 00:02:41;;;;;;;10.30;5.13;;;;;;;2.24;97.29;99519.97;688628;28;3124;-52
2021/12/09 00:03:06;;;;;;;11.43;5.20;;;;;;;2.22;97.12;99514.81;689401;28;1293;-54
2021/12/09 00:03:31;;;;;;;11.05;5.60;;;;;;;2.22;97.01;99522.56;684226;28;2177;-56
2021/12/09 00:03:59;;;;;;;10.57;5.20;;;;;;;2.25;96.57;99514.00;682161;28;2590;-52
2021/12/09 00:04:27;;;;;;;11.00;5.68;;;;;;;2.26;96.85;99518.28;683466;28;4733;-52
2021/12/09 00:04:48;;;;;;;10.65;5.38;;;;;;;2.25;96.38;99522.56;685493;28;3743;-51
2021/12/09 00:05:13;;;;;;;8.80;5.10;;;;;;;2.23;95.90;99524.28;686412;28;1218;-52
2021/12/09 00:05:36;;;;;;;10.02;5.32;;;;;;;2.23;96.05;99521.72;689060;28;1537;-56
2021/12/09 00:05:57;;;;;;;10.40;5.13;;;;;;;2.23;96.06;99524.28;689264;28;1226;-55
2021/12/09 00:06:23;;;;;;;12.10;5.22;;;;;;;2.21;96.51;99519.09;689198;28;1324;-51
2021/12/09 00:06:44;;;;;;;12.57;5.15;;;;;;;2.20;96.38;99529.38;689423;28;1515;-51
2021/12/09 00:07:05;;;;;;;12.32;5.40;;;;;;;2.18;95.95;99521.66;688740;28;4733;-52
2021/12/09 00:07:26;;;;;;;11.23;5.60;;;;;;;2.19;95.98;99527.69;689146;28;3351;-51
2021/12/09 00:07:51;;;;;;;9.15;5.03;;;;;;;2.19;95.93;99518.22;690613;28;3840;-53
2021/12/09 00:08:11;;;;;;;11.18;5.28;;;;;;;2.20;96.50;99526.81;691577;28;1099;-51
2021/12/09 00:08:33;;;;;;;9.98;5.60;;;;;;;2.23;96.12;99521.72;692287;28;1122;-54
2021/12/09 00:09:00;;;;;;;8.77;5.38;;;;;;;2.26;95.65;99524.31;689274;28;2030;-52
2021/12/09 00:09:21;;;;;;;8.88;4.97;;;;;;;2.24;96.13;99525.16;689325;28;1310;-51
2021/12/09 00:09:42;;;;;;;9.95;5.40;;;;;;;2.21;95.76;99525.97;686582;28;1422;-51
2021/12/09 00:10:06;;;;;;;10.27;5.53;;;;;;;2.20;95.40;99532.84;686629;28;4600;-51
2021/12/09 00:10:27;;;;;;;10.60;5.40;;;;;;;2.18;95.46;99525.94;686514;28;3584;-51
2021/12/09 00:10:48;;;;;;;10.63;5.17;;;;;;;2.21;95.56;99531.13;688430;28;1103;-54
2021/12/09 00:11:08;;;;;;;8.95;5.15;;;;;;;2.24;95.57;99527.72;689121;28;1142;-52
2021/12/09 00:11:29;;;;;;;8.82;5.00;;;;;;;2.23;95.72;99524.28;690109;28;1224;-51
2021/12/09 00:11:50;;;;;;;10.43;5.45;;;;;;;2.21;95.98;99526.81;689724;28;1247;-55
2021/12/09 00:12:11;;;;;;;9.93;5.25;;;;;;;2.22;95.96;99533.72;689176;28;1235;-53
2021/12/09 00:12:31;;;;;;;11.20;5.40;;;;;;;2.22;95.68;99533.72;689653;28;1032;-51
2021/12/09 00:12:52;;;;;;;11.73;5.10;;;;;;;2.20;95.33;99535.44;689134;28;1211;-54
2021/12/09 00:13:13;;;;;;;10.38;5.35;;;;;;;2.20;95.43;99530.28;688385;28;4340;-51
2021/12/09 00:13:34;;;;;;;10.70;5.23;;;;;;;2.19;95.24;99531.13;686633;28;1107;-52
2021/12/09 00:13:56;;;;;;;9.27;4.97;;;;;;;2.19;95.27;99528.53;688464;28;1261;-55
2021/12/09 00:14:21;;;;;;;9.48;5.45;;;;;;;2.17;96.12;99530.25;689032;28;1241;-53
2021/12/09 00:14:41;;;;;;;11.20;5.18;;;;;;;2.19;95.62;99522.53;689640;28;1441;-52
2021/12/09 00:15:04;;;;;;;11.80;5.33;;;;;;;2.18;95.79;99528.53;687693;28;1423;-52
2021/12/09 00:15:24;;;;;;;9.88;5.20;;;;;;;2.19;95.64;99525.09;688544;28;1354;-54
2021/12/09 00:15:44;;;;;;;8.93;5.30;;;;;;;2.22;95.44;99528.56;690223;28;1270;-53
2021/12/09 00:16:05;;;;;;;10.32;4.93;;;;;;;2.25;95.57;99521.72;689603;28;4461;-53
2021/12/09 00:16:25;;;;;;;10.10;5.37;;;;;;;2.22;94.97;99525.97;689883;28;1431;-54
2021/12/09 00:16:46;;;;;;;11.45;5.35;;;;;;;2.21;95.82;99518.22;690767;28;1392;-54
2021/12/09 00:17:08;;;;;;;11.15;5.00;;;;;;;2.22;96.18;99522.56;690195;28;1340;-51
2021/12/09 00:17:28;;;;;;;11.20;5.24;;;;;;;2.23;96.04;99519.13;688963;28;1090;-51
2021/12/09 00:17:49;;;;;;;11.00;5.00;;;;;;;2.25;95.97;99521.72;690038;28;1239;-54
2021/12/09 00:18:09;;;;;;;10.20;5.40;;;;;;;2.24;95.66;99522.56;689881;28;1218;-57
2021/12/09 00:18:30;;;;;;;12.00;5.50;;;;;;;2.20;96.04;99519.06;690010;28;1143;-52
2021/12/09 00:18:50;;;;;;;10.00;5.15;;;;;;;2.21;96.69;99518.22;689462;28;2038;-55
2021/12/09 00:19:11;;;;;;;10.40;5.00;;;;;;;2.21;96.28;99519.09;689132;28;4365;-52
2021/12/09 00:19:33;;;;;;;11.02;5.10;;;;;;;2.23;96.31;99519.13;688593;28;1449;-53
2021/12/09 00:19:53;;;;;;;11.43;5.53;;;;;;;2.23;97.08;99519.13;692880;28;1210;-56
2021/12/09 00:20:15;;;;;;;10.93;5.43;;;;;;;2.25;96.06;99517.41;692755;28;2024;-53
2021/12/09 00:20:36;;;;;;;11.50;5.18;;;;;;;2.26;95.88;99518.28;689213;28;2452;-56
2021/12/09 00:20:56;;;;;;;11.03;5.20;;;;;;;2.24;95.46;99513.09;689996;28;1376;-53
2021/12/09 00:21:16;;;;;;;11.97;5.20;;;;;;;2.23;96.02;99519.13;689976;28;1206;-52
2021/12/09 00:21:37;;;;;;;10.77;5.10;;;;;;;2.21;95.92;99511.34;688981;28;3147;-52
2021/12/09 00:21:59;;;;;;;11.35;5.05;;;;;;;2.22;96.09;99517.41;688976;28;2448;-55
2021/12/09 00:22:19;;;;;;;9.50;4.80;;;;;;;2.23;95.74;99516.56;689688;28;5198;-56
2021/12/09 00:22:39;;;;;;;10.43;4.75;;;;;;;2.24;95.40;99515.69;692221;28;1118;-52
2021/12/09 00:23:00;;;;;;;11.83;4.93;;;;;;;2.26;95.07;99516.56;692678;28;1277;-52
2021/12/09 00:23:21;;;;;;;10.63;5.00;;;;;;;2.29;95.14;99508.88;692043;28;1226;-56
2021/12/09 00:23:41;;;;;;;10.60;5.00;;;;;;;2.30;95.27;99513.19;692264;28;1285;-54
2021/12/09 00:24:02;;;;;;;10.63;5.10;;;;;;;2.28;94.81;99517.44;692666;28;1416;-53
2021/12/09 00:24:23;;;;;;;11.02;5.18;;;;;;;2.31;94.70;99514.91;688111;28;1322;-53
2021/12/09 00:24:43;;;;;;;9.60;4.55;;;;;;;2.32;94.73;99511.47;689125;28;3543;-52
2021/12/09 00:25:04;;;;;;;11.27;4.73;;;;;;;2.33;95.05;99520.09;689063;28;4427;-52
2021/12/09 00:25:25;;;;;;;9.57;4.75;;;;;;;2.31;94.51;99516.63;689406;28;969;-58
2021/12/09 00:25:45;;;;;;;9.87;4.73;;;;;;;2.29;95.00;99514.03;689222;28;1333;-51
2021/12/09 00:26:06;;;;;;;9.60;4.60;;;;;;;2.29;95.21;99521.75;689669;28;1530;-53
2021/12/09 00:26:26;;;;;;;9.35;4.60;;;;;;;2.32;94.88;99514.06;692437;28;1015;-52
2021/12/09 00:26:47;;;;;;;9.13;4.73;;;;;;;2.35;94.09;99524.44;691763;28;1189;-55
2021/12/09 00:27:08;;;;;;;8.98;4.90;;;;;;;2.35;94.81;99519.25;688868;28;1167;-52
2021/12/09 00:27:29;;;;;;;9.95;4.75;;;;;;;2.35;94.79;99519.25;689073;28;3375;-55
2021/12/09 00:27:51;;;;;;;9.93;4.77;;;;;;;2.33;94.58;99513.22;686077;28;1359;-52
2021/12/09 00:28:12;;;;;;;8.20;4.47;;;;;;;2.33;95.61;99520.09;686465;28;4477;-51
2021/12/09 00:28:32;;;;;;;10.20;4.78;;;;;;;2.31;95.42;99522.66;689409;28;1138;-52
2021/12/09 00:28:53;;;;;;;10.30;4.80;;;;;;;2.32;95.66;99513.19;690164;28;1258;-51
2021/12/09 00:29:15;;;;;;;9.37;4.80;;;;;;;2.30;95.71;99523.50;689698;28;1289;-52
2021/12/09 00:29:36;;;;;;;8.35;4.50;;;;;;;2.27;95.90;99522.59;689047;28;1075;-56
2021/12/09 00:29:56;;;;;;;9.13;4.77;;;;;;;2.27;95.94;99525.16;691578;28;1482;-53
2021/12/09 00:30:17;;;;;;;10.35;4.68;;;;;;;2.27;95.80;99522.59;689882;28;3442;-54
2021/12/09 00:30:38;;;;;;;11.63;4.80;;;;;;;2.25;96.03;99521.72;690362;28;1277;-54
2021/12/09 00:30:59;;;;;;;11.02;4.80;;;;;;;2.23;95.43;99519.13;691873;28;4439;-52
2021/12/09 00:31:19;;;;;;;10.77;4.90;;;;;;;2.25;95.58;99522.56;691782;28;1234;-53
2021/12/09 00:31:40;;;;;;;8.98;4.72;;;;;;;2.25;96.99;99524.31;690424;28;1461;-53
2021/12/09 00:32:00;;;;;;;8.37;4.47;;;;;;;2.24;96.04;99519.97;689841;28;1103;-52
2021/12/09 00:32:21;;;;;;;9.40;4.65;;;;;;;2.22;95.14;99518.25;690584;28;1305;-52
2021/12/09 00:32:42;;;;;;;9.10;4.82;;;;;;;2.23;95.33;99519.13;689496;28;1476;-52
2021/12/09 00:33:05;;;;;;;9.77;4.90;;;;;;;2.22;95.83;99515.66;688801;28;3151;-52
2021/12/09 00:33:25;;;;;;;10.07;4.70;;;;;;;2.22;96.34;99515.66;690369;28;2166;-54
2021/12/09 00:33:47;;;;;;;9.63;4.57;;;;;;;2.25;95.77;99522.56;692236;28;1502;-53
2021/12/09 00:34:07;;;;;;;9.13;4.50;;;;;;;2.27;95.84;99517.44;690505;28;4304;-53
2021/12/09 00:34:32;;;;;;;9.02;5.10;;;;;;;2.27;95.55;99514.84;692484;28;1149;-52
2021/12/09 00:34:53;;;;;;;9.43;4.60;;;;;;;2.24;95.75;99519.97;688302;28;1420;-52
2021/12/09 00:35:15;;;;;;;10.73;4.65;;;;;;;2.26;95.75;99518.28;689455;28;1270;-54
2021/12/09 00:35:50;;;;;;;10.25;4.65;;;;;;;2.25;95.79;99517.41;689953;28;1127;-53
2021/12/09 00:36:12;;;;;;;9.80;4.50;;;;;;;2.25;95.89;99520.00;688276;28;2195;-52
2021/12/09 00:36:39;;;;;;;9.07;4.47;;;;;;;2.27;95.09;99518.31;688654;28;1178;-55
2021/12/09 00:37:15;;;;;;;9.35;4.57;;;;;;;2.29;94.65;99515.75;691288;28;4358;-54
2021/12/09 00:37:50;;;;;;;10.57;4.43;;;;;;;2.32;94.35;99518.34;692363;28;1237;-53
2021/12/09 00:38:18;;;;;;;8.98;4.22;;;;;;;2.35;94.61;99518.38;691401;28;1221;-52
2021/12/09 00:38:41;;;;;;;9.98;4.70;;;;;;;2.36;94.91;99520.13;692143;28;3081;-52
2021/12/09 00:39:04;;;;;;;10.68;4.45;;;;;;;2.46;94.32;99521.94;692430;28;3614;-54
2021/12/09 00:39:25;;;;;;;10.18;4.35;;;;;;;2.45;94.96;99516.75;689111;28;4091;-53
2021/12/09 00:39:49;;;;;;;10.48;4.40;;;;;;;2.43;94.44;99509.00;689219;28;1336;-56
2021/12/09 00:40:10;;;;;;;7.95;4.45;;;;;;;2.42;94.56;99516.72;687958;28;4435;-54
2021/12/09 00:40:30;;;;;;;10.30;4.67;;;;;;;2.41;94.49;99520.16;686538;28;1143;-53
2021/12/09 00:40:51;;;;;;;12.27;4.68;;;;;;;2.41;94.56;99515.88;686232;28;1333;-53
2021/12/09 00:41:14;;;;;;;11.50;4.53;;;;;;;2.43;94.37;99518.47;687873;28;1298;-51
2021/12/09 00:41:34;;;;;;;11.20;4.70;;;;;;;2.41;95.11;99522.72;688384;28;3422;-54
2021/12/09 00:41:55;;;;;;;9.40;4.47;;;;;;;2.41;95.28;99522.72;689428;28;1459;-53
2021/12/09 00:42:20;;;;;;;9.60;4.60;;;;;;;2.38;95.41;99518.41;689456;28;1469;-53
2021/12/09 00:42:40;;;;;;;11.30;4.60;;;;;;;2.37;95.36;99521.84;692222;28;1461;-53
2021/12/09 00:43:02;;;;;;;10.10;4.80;;;;;;;2.36;95.67;99515.81;692119;28;4425;-52
2021/12/09 00:43:22;;;;;;;9.85;4.47;;;;;;;2.34;95.04;99516.63;691906;28;1908;-52
2021/12/09 00:43:42;;;;;;;10.83;4.83;;;;;;;2.33;95.62;99515.78;692378;28;1512;-55
2021/12/09 00:44:03;;;;;;;9.15;4.88;;;;;;;2.30;95.94;99515.75;692757;28;1242;-53
2021/12/09 00:44:24;;;;;;;9.40;4.70;;;;;;;2.28;95.61;99520.03;690119;28;3346;-55
2021/12/09 00:44:44;;;;;;;8.47;4.40;;;;;;;2.30;95.18;99509.72;691571;28;1185;-53
2021/12/09 00:45:05;;;;;;;8.65;4.40;;;;;;;2.32;96.04;99518.34;692695;28;1261;-53
2021/12/09 00:45:26;;;;;;;9.10;4.40;;;;;;;2.29;96.83;99515.75;692255;28;1293;-52
2021/12/09 00:45:47;;;;;;;8.75;4.50;;;;;;;2.26;96.50;99514.00;692841;28;1154;-53
2021/12/09 00:46:08;;;;;;;9.47;4.77;;;;;;;2.27;96.44;99510.59;690498;28;4506;-59
2021/12/09 00:46:29;;;;;;;9.68;4.90;;;;;;;2.28;96.63;99514.00;689520;28;1122;-53
2021/12/09 00:46:49;;;;;;;9.52;4.55;;;;;;;2.28;96.03;99514.88;687458;28;1308;-53
2021/12/09 00:47:10;;;;;;;9.40;4.40;;;;;;;2.28;96.07;99514.88;688127;28;2023;-51
2021/12/09 00:47:30;;;;;;;10.38;4.63;;;;;;;2.26;96.52;99516.56;689044;28;3384;-56
2021/12/09 00:47:51;;;;;;;8.70;4.43;;;;;;;2.26;96.39;99520.84;686738;28;1286;-52
2021/12/09 00:48:12;;;;;;;8.48;4.43;;;;;;;2.27;95.84;99512.28;689737;28;1091;-53
2021/12/09 00:48:32;;;;;;;9.40;4.25;;;;;;;2.28;96.00;99514.00;687259;28;1297;-53
2021/12/09 00:48:52;;;;;;;9.73;4.40;;;;;;;2.26;96.65;99514.00;691651;28;1367;-51
2021/12/09 00:49:13;;;;;;;7.90;4.25;;;;;;;2.22;95.88;99505.34;686587;28;4365;-57
2021/12/09 00:49:33;;;;;;;8.73;4.30;;;;;;;2.22;95.69;99515.66;686455;28;1087;-53
2021/12/09 00:49:55;;;;;;;9.85;4.60;;;;;;;2.24;95.74;99517.41;689680;28;2033;-51
2021/12/09 00:50:15;;;;;;;10.60;4.82;;;;;;;2.25;95.99;99514.00;690883;28;3560;-52
2021/12/09 00:50:36;;;;;;;8.40;4.30;;;;;;;2.27;95.18;99513.16;691057;28;1114;-54
2021/12/09 00:50:58;;;;;;;8.93;4.10;;;;;;;2.29;95.92;99518.34;692842;28;1132;-55
2021/12/09 00:51:19;;;;;;;10.00;4.40;;;;;;;2.27;96.95;99517.44;693871;28;1206;-51
2021/12/09 00:51:39;;;;;;;11.25;5.00;;;;;;;2.24;96.48;99515.69;692433;28;1248;-54
2021/12/09 00:52:01;;;;;;;11.63;4.90;;;;;;;2.21;96.03;99521.66;692245;28;5485;-55
2021/12/09 00:52:24;;;;;;;9.68;4.68;;;;;;;2.20;96.21;99514.81;692547;28;1238;-53
2021/12/09 00:52:46;;;;;;;9.05;4.40;;;;;;;2.20;95.43;99519.06;692239;28;3285;-52
2021/12/09 00:53:06;;;;;;;9.60;4.50;;;;;;;2.22;95.76;99517.41;691675;28;3546;-51
2021/12/09 00:53:27;;;;;;;9.07;4.35;;;;;;;2.22;96.33;99517.41;691935;28;1563;-52
2021/12/09 00:53:47;;;;;;;9.00;4.37;;;;;;;2.20;96.73;99519.97;692902;28;1119;-51
2021/12/09 00:54:08;;;;;;;9.02;4.55;;;;;;;2.20;96.62;99517.38;692121;28;1091;-51
2021/12/09 00:54:28;;;;;;;9.03;4.77;;;;;;;2.18;96.40;99519.06;689995;28;1248;-52
2021/12/09 00:54:48;;;;;;;9.52;4.43;;;;;;;2.17;96.12;99519.06;689554;28;1163;-51
2021/12/09 00:55:10;;;;;;;8.53;4.50;;;;;;;2.18;95.92;99511.31;688961;28;5421;-54
2021/12/09 00:55:30;;;;;;;10.28;4.60;;;;;;;2.20;95.77;99517.38;688487;28;1109;-54
2021/12/09 00:55:51;;;;;;;9.33;4.50;;;;;;;2.20;96.15;99514.81;688833;28;3353;-51
2021/12/09 00:56:13;;;;;;;9.20;4.60;;;;;;;2.20;96.11;99525.13;689834;28;1103;-51
2021/12/09 00:56:33;;;;;;;9.88;4.60;;;;;;;2.20;96.62;99521.66;692053;28;1469;-51
2021/12/09 00:56:53;;;;;;;9.40;4.80;;;;;;;2.19;95.84;99515.66;692736;28;1305;-52
2021/12/09 00:57:14;;;;;;;10.57;4.80;;;;;;;2.19;96.23;99518.22;692286;28;1241;-51
2021/12/09 00:57:37;;;;;;;11.03;4.73;;;;;;;2.18;96.37;99518.22;691965;28;1158;-53
2021/12/09 00:57:58;;;;;;;10.07;4.30;;;;;;;2.16;96.11;99513.03;691919;28;4572;-53
2021/12/09 00:58:18;;;;;;;8.93;4.40;;;;;;;2.16;96.03;99517.31;692352;28;1313;-51
2021/12/09 00:58:41;;;;;;;10.77;4.78;;;;;;;2.15;95.79;99515.59;691230;28;3349;-54
2021/12/09 00:59:01;;;;;;;10.13;4.55;;;;;;;2.15;95.97;99511.31;692260;28;1194;-51
2021/12/09 00:59:22;;;;;;;8.95;4.32;;;;;;;2.16;95.69;99512.16;691965;28;1218;-51
2021/12/09 00:59:42;;;;;;;10.03;4.40;;;;;;;2.18;96.72;99519.06;689843;28;1254;-52
2021/12/09 01:00:13;;;;;;;10.27;4.60;;;;;;;2.17;96.68;99513.91;689196;28;1488;-52
2021/12/09 01:00:34;;;;;;;9.93;4.38;;;;;;;2.14;96.40;99517.28;688811;28;1052;-51
2021/12/09 01:00:54;;;;;;;11.00;4.90;;;;;;;2.11;96.42;99519.00;688599;28;1464;-53
2021/12/09 01:01:16;;;;;;;12.13;4.30;;;;;;;2.08;96.19;99513.78;688897;28;4476;-52
2021/12/09 01:01:36;;;;;;;9.55;4.38;;;;;;;2.08;95.87;99511.19;691124;28;3595;-52
2021/12/09 01:01:56;;;;;;;9.07;4.50;;;;;;;2.07;96.15;99517.22;692375;28;1429;-52
2021/12/09 01:02:17;;;;;;;9.15;4.50;;;;;;;2.07;96.70;99514.66;690623;28;1246;-51
2021/12/09 01:02:38;;;;;;;9.77;4.80;;;;;;;2.07;96.43;99522.38;688985;28;1284;-51
2021/12/09 01:02:59;;;;;;;9.27;4.47;;;;;;;2.08;96.64;99516.38;687930;28;1222;-52
2021/12/09 01:03:20;;;;;;;9.88;4.65;;;;;;;2.08;97.35;99526.69;687690;28;1397;-51
2021/12/09 01:03:42;;;;;;;8.82;4.47;;;;;;;2.06;96.70;99521.50;689360;28;1305;-52
2021/12/09 01:04:03;;;;;;;9.07;4.63;;;;;;;2.08;96.37;99521.53;687215;28;4369;-53
2021/12/09 01:04:23;;;;;;;8.53;4.43;;;;;;;2.09;95.99;99525.84;689086;28;3542;-52
2021/12/09 01:04:46;;;;;;;9.75;4.40;;;;;;;2.12;95.63;99523.28;690278;28;1361;-52
2021/12/09 01:05:09;;;;;;;9.20;4.43;;;;;;;2.14;95.86;99524.19;691587;28;991;-52
2021/12/09 01:05:30;;;;;;;9.90;4.38;;;;;;;2.12;96.10;99526.75;691836;28;1270;-51
2021/12/09 01:05:50;;;;;;;9.85;4.35;;;;;;;2.14;96.37;99519.03;691089;28;1079;-52
2021/12/09 01:06:11;;;;;;;9.03;4.23;;;;;;;2.15;96.22;99523.34;692040;28;1119;-52
2021/12/09 01:06:31;;;;;;;8.38;4.28;;;;;;;2.16;96.36;99527.63;690691;28;1237;-52
2021/12/09 01:06:52;;;;;;;9.73;4.80;;;;;;;2.17;96.26;99526.78;687161;28;1433;-53
2021/12/09 01:07:13;;;;;;;11.77;4.72;;;;;;;2.18;96.37;99531.09;686337;28;4560;-51
2021/12/09 01:07:37;;;;;;;10.25;4.60;;;;;;;2.20;97.15;99529.38;686594;28;1436;-52
2021/12/09 01:07:58;;;;;;;8.77;4.30;;;;;;;2.18;96.98;99525.94;686915;28;1298;-51
2021/12/09 01:08:18;;;;;;;9.00;4.40;;;;;;;2.18;96.18;99525.94;687435;28;1428;-51
2021/12/09 01:08:40;;;;;;;8.88;4.40;;;;;;;2.19;95.61;99525.97;688760;28;1412;-51
2021/12/09 01:09:02;;;;;;;9.38;4.25;;;;;;;2.20;95.95;99530.28;692816;28;1313;-52
2021/12/09 01:09:22;;;;;;;9.10;4.38;;;;;;;2.17;95.51;99526.78;692054;28;1465;-52
2021/12/09 01:09:43;;;;;;;10.00;4.50;;;;;;;2.15;95.84;99526.78;693372;28;1516;-51
2021/12/09 01:10:09;;;;;;;9.10;4.18;;;;;;;2.14;95.49;99530.19;691118;28;4442;-51
2021/12/09 01:10:29;;;;;;;9.30;4.80;;;;;;;2.13;95.53;99533.63;692090;28;1353;-53
2021/12/09 01:10:50;;;;;;;10.70;4.63;;;;;;;2.12;95.92;99533.59;692252;28;1219;-55
2021/12/09 01:11:12;;;;;;;10.65;4.68;;;;;;;2.08;95.99;99526.69;691960;28;1349;-52
2021/12/09 01:11:32;;;;;;;10.20;4.68;;;;;;;2.10;96.00;99530.16;691582;28;1051;-51
2021/12/09 01:11:53;;;;;;;8.90;4.50;;;;;;;2.13;95.93;99535.34;691856;28;1309;-53
2021/12/09 01:12:13;;;;;;;8.57;4.30;;;;;;;2.10;96.55;99532.72;692458;28;1254;-52
2021/12/09 01:12:34;;;;;;;8.52;4.25;;;;;;;2.09;96.63;99542.19;691722;28;2104;-53
2021/12/09 01:12:55;;;;;;;8.40;4.40;;;;;;;2.10;95.98;99530.16;691551;28;3571;-51
2021/12/09 01:13:16;;;;;;;10.02;4.35;;;;;;;2.09;96.18;99533.56;688114;28;4470;-52
2021/12/09 01:13:36;;;;;;;10.47;4.50;;;;;;;2.08;96.04;99534.41;688384;28;1220;-54
2021/12/09 01:13:57;;;;;;;10.20;4.40;;;;;;;2.09;96.68;99536.16;689592;28;1374;-51
2021/12/09 01:14:17;;;;;;;9.70;4.40;;;;;;;2.07;96.94;99535.28;689603;28;1239;-51
2021/12/09 01:14:38;;;;;;;10.80;4.60;;;;;;;2.04;96.50;99531.81;689231;28;1339;-54
2021/12/09 01:14:58;;;;;;;11.52;4.47;;;;;;;2.04;96.68;99538.69;689460;28;1325;-50
2021/12/09 01:15:19;;;;;;;10.50;4.32;;;;;;;2.06;96.14;99534.41;689937;28;1286;-51
2021/12/09 01:15:40;;;;;;;9.40;4.53;;;;;;;2.10;97.26;99537.88;690364;28;3285;-51
2021/12/09 01:16:00;;;;;;;10.27;4.75;;;;;;;2.09;97.69;99541.31;691215;28;4454;-51
2021/12/09 01:16:21;;;;;;;9.10;4.50;;;;;;;2.07;96.38;99536.13;690982;28;1387;-56
2021/12/09 01:16:41;;;;;;;10.18;4.65;;;;;;;2.07;96.52;99537.84;691756;28;2688;-53
2021/12/09 01:17:02;;;;;;;10.67;4.40;;;;;;;2.05;96.10;99537.84;690727;28;1301;-52
2021/12/09 01:17:22;;;;;;;11.35;4.30;;;;;;;2.08;96.35;99534.41;693123;28;1582;-51
2021/12/09 01:17:46;;;;;;;9.68;4.50;;;;;;;2.09;96.78;99543.88;694697;28;1222;-51
2021/12/09 01:18:06;;;;;;;8.90;4.13;;;;;;;2.07;97.07;99535.28;694980;28;1448;-52
2021/12/09 01:18:27;;;;;;;8.25;4.10;;;;;;;2.06;96.41;99541.28;692071;28;3544;-52
2021/12/09 01:18:47;;;;;;;9.13;4.60;;;;;;;2.03;96.48;99537.78;691965;28;1515;-52
2021/12/09 01:19:08;;;;;;;11.55;4.55;;;;;;;2.01;96.10;99544.66;691685;28;4520;-55
2021/12/09 01:19:28;;;;;;;9.73;4.60;;;;;;;2.01;96.50;99538.66;691839;28;1139;-56
2021/12/09 01:19:48;;;;;;;8.40;4.33;;;;;;;2.01;96.15;99539.50;691465;28;1215;-51
2021/12/09 01:20:12;;;;;;;9.27;4.30;;;;;;;2.03;96.74;99542.09;689808;28;1902;-51
2021/12/09 01:20:33;;;;;;;10.23;4.35;;;;;;;2.00;97.04;99542.91;692089;28;1234;-52
2021/12/09 01:20:53;;;;;;;8.63;4.28;;;;;;;1.96;97.33;99540.31;691793;28;1091;-52
2021/12/09 01:21:13;;;;;;;9.67;4.67;;;;;;;1.95;96.92;99538.56;692749;28;3278;-52
2021/12/09 01:21:34;;;;;;;10.95;4.82;;;;;;;1.94;96.46;99540.28;692040;28;1121;-53
2021/12/09 01:21:54;;;;;;;10.03;4.70;;;;;;;1.95;96.68;99543.72;692122;28;1410;-53
2021/12/09 01:22:14;;;;;;;8.57;4.27;;;;;;;1.93;96.75;99540.28;691896;28;4296;-50
2021/12/09 01:22:42;;;;;;;10.18;4.55;;;;;;;1.90;96.81;99545.38;692299;28;1143;-51
2021/12/09 01:23:03;;;;;;;9.73;4.57;;;;;;;1.86;97.27;99547.06;692504;28;1438;-53
2021/12/09 01:23:24;;;;;;;8.63;4.20;;;;;;;1.83;97.14;99534.13;694235;28;1488;-52
2021/12/09 01:23:44;;;;;;;11.18;4.60;;;;;;;1.84;96.83;99535.84;695151;28;1214;-52
2021/12/09 01:24:05;;;;;;;10.43;4.33;;;;;;;1.84;96.66;99541.00;693492;28;3324;-51
2021/12/09 01:24:25;;;;;;;9.60;4.53;;;;;;;1.85;96.62;99545.31;693050;28;1473;-51
2021/12/09 01:24:46;;;;;;;9.33;4.50;;;;;;;1.86;97.08;99537.59;694340;28;1145;-54
2021/12/09 01:25:12;;;;;;;8.65;4.20;;;;;;;1.85;96.98;99540.16;694072;28;4516;-52
2021/12/09 01:25:36;;;;;;;10.38;4.32;;;;;;;1.84;98.18;99534.16;691202;28;1169;-52
2021/12/09 01:26:01;;;;;;;9.00;4.40;;;;;;;1.86;98.06;99535.03;692402;28;1210;-54
2021/12/09 01:26:23;;;;;;;9.48;4.47;;;;;;;1.90;97.40;99545.38;691965;28;1312;-55
2021/12/09 01:26:45;;;;;;;8.98;4.25;;;;;;;1.92;97.22;99544.53;690650;28;3035;-51
2021/12/09 01:27:06;;;;;;;9.15;4.18;;;;;;;1.90;97.36;99542.78;689326;28;3901;-52
2021/12/09 01:27:28;;;;;;;10.93;4.53;;;;;;;1.86;97.77;99540.19;688878;28;1361;-53
2021/12/09 01:27:50;;;;;;;9.48;4.25;;;;;;;1.86;96.93;99549.63;686028;28;1082;-53
2021/12/09 01:28:19;;;;;;;7.43;3.90;;;;;;;1.89;97.14;99544.50;686137;28;4840;-55
2021/12/09 01:28:54;;;;;;;9.38;4.40;;;;;;;1.91;96.64;99542.84;688452;28;1115;-52
2021/12/09 01:29:19;;;;;;;10.90;4.43;;;;;;;1.90;96.56;99547.94;689153;28;1095;-51
2021/12/09 01:29:42;;;;;;;7.65;4.25;;;;;;;1.91;96.42;99549.69;690131;28;3092;-51
2021/12/09 01:30:11;;;;;;;8.30;4.32;;;;;;;1.90;96.71;99545.38;691951;28;3502;-59
2021/12/09 01:30:32;;;;;;;9.15;4.18;;;;;;;1.89;96.33;99548.81;692323;28;1590;-55
2021/12/09 01:31:01;;;;;;;8.55;4.43;;;;;;;1.91;96.17;99549.69;691116;28;1161;-51
2021/12/09 01:31:25;;;;;;;8.55;4.22;;;;;;;1.94;97.41;99554.88;688546;28;4789;-51
2021/12/09 01:31:56;;;;;;;8.25;4.13;;;;;;;1.94;96.44;99548.03;688992;28;1130;-51
2021/12/09 01:32:23;;;;;;;8.85;4.18;;;;;;;1.97;96.92;99554.94;689788;28;1081;-55
2021/12/09 01:32:51;;;;;;;8.40;4.05;;;;;;;1.97;97.30;99553.22;691381;28;3410;-53
2021/12/09 01:33:11;;;;;;;9.07;4.40;;;;;;;1.95;97.18;99554.03;691087;28;1422;-50
2021/12/09 01:33:33;;;;;;;9.10;4.23;;;;;;;1.94;97.22;99553.16;692343;28;1044;-55
2021/12/09 01:33:59;;;;;;;8.02;4.32;;;;;;;1.95;97.03;99552.34;691798;28;1123;-55
2021/12/09 01:34:21;;;;;;;8.98;4.38;;;;;;;1.96;96.82;99555.75;690028;28;4825;-51
2021/12/09 01:34:42;;;;;;;9.13;4.20;;;;;;;1.97;96.44;99550.63;690106;28;1316;-52
2021/12/09 01:35:04;;;;;;;9.10;4.18;;;;;;;1.97;96.23;99545.47;690533;28;1187;-55
2021/12/09 01:35:30;;;;;;;8.35;4.22;;;;;;;1.97;96.13;99545.47;689382;28;3370;-52
2021/12/09 01:35:51;;;;;;;8.25;4.10;;;;;;;2.01;96.53;99554.97;688806;28;1319;-53
2021/12/09 01:36:11;;;;;;;8.83;4.40;;;;;;;2.02;97.06;99550.66;691616;28;1494;-51
2021/12/09 01:36:34;;;;;;;10.07;4.32;;;;;;;2.01;97.10;99549.81;692114;28;1147;-51
2021/12/09 01:36:55;;;;;;;10.43;4.20;;;;;;;2.02;96.60;99548.97;690742;28;1250;-52
2021/12/09 01:37:15;;;;;;;10.48;4.28;;;;;;;2.02;97.00;99548.97;689037;28;4708;-52
2021/12/09 01:37:38;;;;;;;9.20;4.30;;;;;;;2.02;97.49;99550.66;687025;28;1298;-52
2021/12/09 01:38:02;;;;;;;9.45;3.92;;;;;;;1.98;97.12;99544.63;688657;28;1327;-52
2021/12/09 01:38:25;;;;;;;9.60;4.38;;;;;;;1.97;97.43;99548.06;686442;28;3421;-52
2021/12/09 01:38:46;;;;;;;9.45;4.20;;;;;;;1.98;96.60;99549.78;684326;28;1269;-52
2021/12/09 01:39:07;;;;;;;8.25;4.50;;;;;;;1.98;96.83;99544.63;685489;28;1152;-53
2021/12/09 01:39:30;;;;;;;9.60;4.25;;;;;;;1.94;97.05;99545.44;687719;28;1139;-55
2021/12/09 01:39:51;;;;;;;9.35;4.07;;;;;;;1.95;97.46;99552.34;689174;28;1258;-53
2021/12/09 01:40:12;;;;;;;10.13;4.20;;;;;;;1.95;96.93;99552.34;688139;28;4380;-51
2021/12/09 01:40:33;;;;;;;10.50;4.25;;;;;;;1.96;97.50;99550.63;689409;28;1095;-51
2021/12/09 01:40:55;;;;;;;7.90;4.00;;;;;;;1.97;96.39;99547.19;692637;28;1925;-54
2021/12/09 01:41:15;;;;;;;8.82;4.10;;;;;;;1.97;96.76;99548.06;692136;28;3494;-51
2021/12/09 01:41:35;;;;;;;9.15;4.35;;;;;;;1.97;97.69;99550.63;691946;28;1403;-54
2021/12/09 01:41:57;;;;;;;8.93;4.43;;;;;;;1.97;97.59;99550.63;692657;28;1110;-54
2021/12/09 01:42:18;;;;;;;8.32;4.30;;;;;;;1.97;97.85;99549.78;688862;28;1079;-52
2021/12/09 01:42:38;;;;;;;11.17;4.50;;;;;;;1.96;98.00;99550.63;686324;28;1176;-51
2021/12/09 01:42:59;;;;;;;9.57;4.57;;;;;;;1.95;97.86;99547.19;687471;28;4460;-54
2021/12/09 01:43:19;;;;;;;7.95;4.07;;;;;;;1.96;97.80;99548.88;687277;28;1227;-52
2021/12/09 01:43:40;;;;;;;8.47;3.80;;;;;;;1.96;97.83;99545.47;686542;28;1278;-53
2021/12/09 01:44:00;;;;;;;10.35;4.47;;;;;;;1.94;98.02;99545.44;687305;28;3370;-51
2021/12/09 01:44:21;;;;;;;9.90;4.47;;;;;;;1.92;97.14;99551.41;689090;28;1353;-53
2021/12/09 01:44:42;;;;;;;9.63;4.10;;;;;;;1.90;97.43;99553.97;691837;28;1324;-55
2021/12/09 01:45:04;;;;;;;9.20;4.00;;;;;;;1.88;97.27;99555.66;690256;28;1422;-52
2021/12/09 01:45:25;;;;;;;8.90;4.30;;;;;;;1.89;96.96;99548.81;689824;28;1440;-51
2021/12/09 01:45:46;;;;;;;9.40;4.40;;;;;;;1.87;97.22;99554.81;689733;28;1139;-51
2021/12/09 01:46:10;;;;;;;7.63;4.33;;;;;;;1.88;96.82;99558.22;690218;28;4406;-53